createdAt,value
2023-03-02T00:00:33.554Z,62.26
2023-03-02T00:05:36.119Z,62.67
2023-03-02T00:10:39.073Z,62.52
2023-03-02T00:15:41.682Z,62.87
2023-03-02T00:20:43.747Z,61.83
2023-03-02T00:25:45.847Z,62.46
2023-03-02T00:30:47.905Z,62.45
2023-03-02T00:35:50.023Z,62.67
2023-03-02T00:40:52.263Z,62.76
2023-03-02T00:45:55.658Z,62.89
2023-03-02T00:51:01.477Z,62.81
2023-03-02T00:56:04.711Z,63.12
2023-03-02T01:01:12.417Z,62.24
2023-03-02T01:06:17.901Z,62.66
2023-03-02T01:11:22.678Z,62.91
2023-03-02T01:16:24.708Z,62.45
2023-03-02T01:21:26.801Z,63.37
2023-03-02T01:26:28.974Z,63.30
2023-03-02T01:31:31.479Z,62.98
2023-03-02T01:36:34.114Z,62.95
2023-03-02T01:41:36.424Z,63.48
2023-03-02T01:46:38.431Z,62.96
2023-03-02T01:51:46.269Z,63.07
2023-03-02T01:56:48.353Z,63.59
2023-03-02T02:07:03.687Z,63.80
2023-03-02T02:12:06.157Z,63.76
2023-03-02T02:17:08.856Z,63.27
2023-03-02T02:22:12.195Z,63.62
2023-03-02T02:27:15.218Z,64.13
2023-03-02T02:32:30.722Z,64.11
2023-03-02T02:37:40.110Z,64.07
2023-03-02T02:42:48.621Z,64.33
2023-03-02T02:47:52.758Z,65.12
2023-03-02T02:53:05.669Z,63.88
2023-03-02T02:58:22.424Z,65.04
2023-03-02T03:03:31.307Z,64.70
2023-03-02T03:08:52.282Z,65.39
2023-03-02T03:14:16.035Z,65.61
2023-03-02T03:19:25.825Z,65.91
2023-03-02T03:24:29.633Z,65.15
2023-03-02T03:29:32.874Z,65.85
2023-03-02T03:34:41.139Z,65.10
2023-03-02T03:39:43.985Z,66.08
2023-03-02T03:44:46.165Z,65.19
2023-03-02T03:49:48.176Z,65.81
2023-03-02T03:54:50.141Z,65.79
2023-03-02T03:59:52.177Z,65.45
2023-03-02T04:04:54.268Z,65.93
2023-03-02T04:10:03.892Z,65.39
2023-03-02T04:15:09.376Z,65.21
2023-03-02T04:20:16.923Z,65.59
2023-03-02T04:25:27.551Z,65.51
2023-03-02T04:30:29.940Z,65.68
2023-03-02T04:35:32.002Z,65.87
2023-03-02T04:40:34.052Z,65.18
2023-03-02T04:45:36.059Z,65.32
2023-03-02T04:50:38.711Z,65.54
2023-03-02T04:55:41.142Z,65.61
2023-03-02T05:00:43.205Z,65.49
2023-03-02T05:05:45.283Z,66.05
2023-03-02T05:10:47.334Z,65.98
2023-03-02T05:15:51.104Z,66.48
2023-03-02T05:20:54.663Z,66.18
2023-03-02T05:25:57.823Z,66.92
2023-03-02T05:31:00.180Z,66.50
2023-03-02T05:36:02.487Z,66.87
2023-03-02T05:41:11.864Z,66.35
2023-03-02T05:46:15.392Z,67.05
2023-03-02T05:51:18.091Z,66.55
2023-03-02T05:56:22.639Z,67.16
2023-03-02T06:01:24.656Z,66.97
2023-03-02T06:06:26.861Z,67.49
2023-03-02T06:11:31.484Z,67.27
2023-03-02T06:16:34.221Z,66.69
2023-03-02T06:21:36.781Z,67.37
2023-03-02T06:26:38.957Z,67.46
2023-03-02T06:31:41.252Z,67.38
2023-03-02T06:36:43.676Z,67.93
2023-03-02T06:41:47.232Z,67.36
2023-03-02T06:46:50.071Z,67.71
2023-03-02T06:51:58.364Z,68.09
2023-03-02T06:57:01.850Z,68.15
2023-03-02T07:02:05.042Z,67.81
2023-03-02T07:07:07.266Z,68.32
2023-03-02T07:12:14.524Z,68.62
2023-03-02T07:17:17.078Z,68.44
2023-03-02T07:22:19.138Z,69.75
2023-03-02T07:27:21.198Z,71.64
2023-03-02T07:32:24.207Z,77.83
2023-03-02T07:37:31.530Z,78.24
2023-03-02T07:42:35.632Z,81.22
2023-03-02T07:47:42.803Z,81.08
2023-03-02T07:52:58.101Z,81.01
2023-03-02T07:58:03.155Z,79.14
2023-03-02T08:03:05.558Z,78.02
2023-03-02T08:08:08.484Z,77.61
2023-03-02T08:13:10.529Z,76.13
2023-03-02T08:18:12.413Z,75.34
2023-03-02T08:23:15.112Z,73.98
2023-03-02T08:28:17.181Z,72.14
2023-03-02T08:33:19.230Z,72.11
2023-03-02T08:38:21.302Z,71.06
2023-03-02T08:43:25.677Z,70.16
2023-03-02T08:48:28.889Z,69.16
2023-03-02T08:53:34.874Z,68.14
2023-03-02T08:58:40.134Z,67.34
2023-03-02T09:03:46.616Z,66.12
2023-03-02T09:08:52.339Z,65.92
2023-03-02T09:13:55.331Z,65.00
2023-03-02T09:18:57.343Z,64.40
2023-03-02T09:23:59.638Z,63.02
2023-03-02T09:29:02.097Z,63.79
2023-03-02T09:34:05.486Z,62.42
2023-03-02T09:39:12.656Z,61.84
2023-03-02T09:44:41.269Z,61.74
2023-03-02T09:50:05.128Z,60.63
2023-03-02T09:55:23.816Z,59.44
2023-03-02T10:00:33.216Z,59.01
2023-03-02T10:05:55.603Z,57.32
2023-03-02T10:11:28.653Z,58.64
2023-03-02T10:16:48.738Z,58.05
2023-03-02T10:21:58.703Z,57.62
2023-03-02T10:27:22.606Z,57.55
2023-03-02T10:32:30.118Z,57.45
2023-03-02T10:37:32.295Z,56.27
2023-03-02T10:42:40.700Z,56.92
2023-03-02T10:47:42.818Z,56.20
2023-03-02T10:52:59.506Z,54.04
2023-03-02T10:58:20.496Z,52.33
2023-03-02T11:03:23.614Z,52.27
2023-03-02T11:08:28.424Z,53.45
2023-03-02T11:13:33.908Z,54.35
2023-03-02T11:18:46.268Z,55.00
2023-03-02T11:24:00.443Z,55.28
2023-03-02T11:29:11.854Z,55.71
2023-03-02T11:34:40.919Z,56.08
2023-03-02T11:39:54.989Z,57.23
2023-03-02T11:45:01.110Z,57.42
2023-03-02T11:50:06.462Z,58.34
2023-03-02T11:55:17.950Z,57.65
2023-03-02T12:00:38.383Z,58.48
2023-03-02T12:05:40.878Z,59.79
2023-03-02T12:10:44.601Z,59.42
2023-03-02T12:15:50.457Z,60.17
2023-03-02T12:21:01.756Z,60.42
2023-03-02T12:26:24.411Z,61.54
2023-03-02T12:31:27.218Z,69.81
2023-03-02T12:36:42.385Z,71.22
2023-03-02T12:42:00.379Z,72.46
2023-03-02T12:47:04.047Z,71.68
2023-03-02T12:52:27.811Z,71.61
2023-03-02T12:57:32.391Z,70.85
2023-03-02T13:02:37.415Z,69.73
2023-03-02T13:07:50.492Z,68.51
2023-03-02T13:12:52.758Z,67.97
2023-03-02T13:18:01.316Z,66.73
2023-03-02T13:23:03.975Z,65.37
2023-03-02T13:28:08.115Z,64.36
2023-03-02T13:33:23.615Z,61.14
2023-03-02T13:38:38.166Z,48.15
2023-03-02T13:43:40.396Z,47.03
2023-03-02T13:49:09.047Z,45.76
2023-03-02T13:54:22.661Z,52.07
2023-03-02T13:59:25.300Z,49.58
2023-03-02T14:04:27.561Z,50.35
2023-03-02T14:09:29.808Z,52.28
2023-03-02T14:14:40.558Z,51.48
2023-03-02T14:19:55.527Z,50.86
2023-03-02T14:25:01.040Z,50.37
2023-03-02T14:30:35.678Z,47.62
2023-03-02T14:35:38.034Z,47.76
2023-03-02T14:40:46.891Z,47.96
2023-03-02T14:45:50.724Z,49.19
2023-03-02T14:51:01.108Z,50.33
2023-03-02T14:56:04.207Z,50.53
2023-03-02T15:01:08.103Z,50.76
2023-03-02T15:06:25.087Z,51.46
2023-03-02T15:11:30.165Z,49.73
2023-03-02T15:16:34.980Z,49.62
2023-03-02T15:21:39.746Z,49.76
2023-03-02T15:26:53.378Z,49.94
2023-03-02T15:38:31.122Z,49.79
2023-03-02T15:43:43.283Z,50.37
2023-03-02T15:48:55.186Z,50.93
2023-03-02T15:54:04.678Z,51.19
2023-03-02T15:59:07.118Z,51.15
2023-03-02T16:04:09.706Z,51.40
2023-03-02T16:09:12.076Z,50.93
2023-03-02T16:14:16.045Z,51.93
2023-03-02T16:19:19.611Z,51.43
2023-03-02T16:24:21.789Z,51.25
2023-03-02T16:29:24.569Z,51.33
2023-03-02T16:34:27.187Z,50.87
2023-03-02T16:39:29.654Z,51.17
2023-03-02T16:44:31.501Z,51.70
2023-03-02T16:49:33.932Z,51.67
2023-03-02T16:54:36.126Z,51.11
2023-03-02T16:59:41.327Z,51.50
2023-03-02T17:04:43.615Z,51.38
2023-03-02T17:09:46.154Z,51.52
2023-03-02T17:14:49.945Z,51.67
2023-03-02T17:19:52.191Z,51.92
2023-03-02T17:25:06.725Z,52.00
2023-03-02T17:30:24.734Z,51.90
2023-03-02T17:35:45.093Z,52.31
2023-03-02T17:41:46.862Z,52.29
2023-03-02T17:46:54.050Z,52.13
2023-03-02T17:52:04.709Z,52.16
2023-03-02T17:57:09.656Z,52.45
2023-03-02T18:02:13.604Z,52.60
2023-03-02T18:07:17.671Z,52.65
2023-03-02T18:12:20.241Z,52.58
2023-03-02T18:17:25.402Z,52.94
2023-03-02T18:22:30.569Z,53.22
2023-03-02T18:27:33.908Z,53.72
2023-03-02T18:32:37.230Z,54.02
2023-03-02T18:37:45.682Z,54.00
2023-03-02T18:42:56.650Z,54.30
2023-03-02T18:53:36.179Z,55.14
2023-03-02T18:58:52.787Z,55.04
2023-03-02T19:04:21.149Z,55.43
2023-03-02T19:09:49.233Z,55.57
2023-03-02T19:14:59.827Z,55.78
2023-03-02T19:20:17.736Z,55.92
2023-03-02T19:25:31.933Z,55.27
2023-03-02T19:30:42.258Z,56.36
2023-03-02T19:35:47.090Z,55.95
2023-03-02T19:40:50.607Z,55.99
2023-03-02T19:45:58.738Z,56.08
2023-03-02T19:51:01.920Z,56.40
2023-03-02T19:56:24.769Z,56.34
2023-03-02T20:01:33.029Z,56.26
2023-03-02T20:13:08.696Z,56.37
2023-03-02T20:18:23.677Z,56.43
2023-03-02T20:23:30.899Z,56.22
2023-03-02T20:28:35.420Z,56.34
2023-03-02T20:33:52.278Z,57.46
2023-03-02T20:39:07.912Z,56.40
2023-03-02T20:44:12.832Z,56.71
2023-03-02T20:49:18.636Z,57.13
2023-03-02T20:54:36.212Z,56.68
2023-03-02T20:59:39.550Z,58.05
2023-03-02T21:04:43.652Z,57.92
2023-03-02T21:09:52.413Z,57.34
2023-03-02T21:14:55.981Z,56.80
2023-03-02T21:19:59.747Z,57.01
2023-03-02T21:25:02.287Z,58.47
2023-03-02T21:30:10.648Z,57.22
2023-03-02T21:35:23.524Z,57.22
2023-03-02T21:40:31.262Z,57.74
2023-03-02T21:45:37.332Z,58.22
2023-03-02T21:50:40.860Z,58.09
2023-03-02T21:55:46.331Z,58.78
2023-03-02T22:00:53.925Z,58.85
2023-03-02T22:05:56.257Z,59.15
2023-03-02T22:10:58.293Z,58.30
2023-03-02T22:16:14.196Z,58.99
2023-03-02T22:21:37.602Z,59.34
2023-03-02T22:26:54.763Z,59.12
2023-03-02T22:32:06.738Z,59.25
2023-03-02T22:37:19.168Z,59.42
2023-03-02T22:42:27.511Z,59.71
2023-03-02T22:47:29.664Z,59.22
2023-03-02T22:52:43.387Z,59.44
2023-03-02T22:57:45.700Z,59.27
2023-03-02T23:02:48.380Z,59.45
2023-03-02T23:07:51.429Z,59.89
2023-03-02T23:12:53.433Z,59.37
2023-03-02T23:17:59.579Z,60.06
2023-03-02T23:23:01.551Z,59.86
2023-03-02T23:28:05.272Z,60.36
2023-03-02T23:33:07.699Z,59.82
2023-03-02T23:38:09.777Z,60.23
2023-03-02T23:43:11.958Z,60.17
2023-03-02T23:48:14.009Z,59.84
2023-03-02T23:53:16.184Z,60.48
2023-03-02T23:58:18.252Z,60.29
